Time;durP1;ratioP1;P1;durP2;ratioP2;P2;SDS_P1;SDS_P2;PMS_P1;PMS_P2;Temp;Humidity;BMP_temperature;BMP_pressure;BME280_temperature;BME280_humidity;BME280_pressure;Samples;Min_cycle;Max_cycle;Signal;HPM_P1;HPM_P2
2023/10/01 00:00:36;;;;;;;12.70;11.10;;;;;;;8.31;100.00;99849.73;109620;1250;59121;-68
2023/10/01 00:03:22;;;;;;;16.20;12.30;;;;;;;8.29;100.00;99848.43;109653;1250;75250;-68
2023/10/01 00:05:49;;;;;;;14.90;11.70;;;;;;;8.27;100.00;99849.77;109572;1250;59832;-68
2023/10/01 00:08:15;;;;;;;11.90;9.80;;;;;;;8.24;100.00;99850.23;109582;1250;62583;-68
2023/10/01 00:10:42;;;;;;;17.20;11.50;;;;;;;8.22;100.00;99851.23;109637;1250;59000;-68
2023/10/01 00:13:08;;;;;;;13.00;10.70;;;;;;;8.18;100.00;99848.77;109607;1251;59032;-68
2023/10/01 00:15:37;;;;;;;14.70;11.40;;;;;;;8.15;100.00;99850.10;109691;1250;59078;-68
2023/10/01 00:18:05;;;;;;;16.00;12.30;;;;;;;8.11;100.00;99850.09;109441;1250;60277;-68
2023/10/01 00:20:33;;;;;;;18.60;12.80;;;;;;;8.08;100.00;99848.09;109659;1250;63750;-68
2023/10/01 00:23:02;;;;;;;16.30;11.80;;;;;;;8.06;100.00;99846.27;109434;1250;59033;-68
2023/10/01 00:25:30;;;;;;;13.10;9.80;;;;;;;8.03;100.00;99848.14;109646;1250;59074;-68
2023/10/01 00:28:00;;;;;;;16.30;11.40;;;;;;;8.00;100.00;99841.35;109638;1251;66981;-68
2023/10/01 00:30:31;;;;;;;15.20;11.80;;;;;;;7.98;100.00;99839.50;109627;1250;60335;-69
2023/10/01 00:32:59;;;;;;;17.40;12.70;;;;;;;7.95;100.00;99838.59;109599;1250;63895;-69
2023/10/01 00:35:26;;;;;;;17.90;12.50;;;;;;;7.89;100.00;99834.59;109586;1250;58996;-69
2023/10/01 00:37:53;;;;;;;13.40;10.50;;;;;;;7.84;100.00;99830.73;109635;1250;58829;-69
2023/10/01 00:40:20;;;;;;;11.40;10.10;;;;;;;7.81;100.00;99828.92;109646;1250;65981;-69
2023/10/01 00:42:47;;;;;;;13.80;11.10;;;;;;;7.78;100.00;99827.64;109672;1250;60462;-69
2023/10/01 00:45:16;;;;;;;37.30;13.70;;;;;;;7.76;100.00;99829.64;109633;1250;59022;-67
2023/10/01 00:47:45;;;;;;;14.20;10.10;;;;;;;7.75;100.00;99828.44;109590;1250;58976;-67
2023/10/01 00:50:15;;;;;;;17.30;11.10;;;;;;;7.74;100.00;99819.48;109624;1250;58977;-67
2023/10/01 00:52:43;;;;;;;14.60;11.00;;;;;;;7.73;100.00;99813.88;109651;1250;64483;-68
2023/10/01 00:55:11;;;;;;;28.80;14.50;;;;;;;7.70;100.00;99810.25;109665;1250;60091;-67
2023/10/01 00:57:38;;;;;;;31.40;17.20;;;;;;;7.70;100.00;99816.64;109449;1250;64052;-68
2023/10/01 01:00:15;;;;;;;16.10;12.30;;;;;;;7.69;100.00;99819.67;109625;1250;58961;-69
2023/10/01 01:02:57;;;;;;;18.30;12.60;;;;;;;7.68;100.00;99815.98;109687;1250;59014;-68
2023/10/01 01:05:26;;;;;;;21.00;13.40;;;;;;;7.67;100.00;99816.39;109612;1250;64772;-68
2023/10/01 01:07:54;;;;;;;13.30;11.50;;;;;;;7.66;100.00;99814.67;109666;1250;59038;-68
2023/10/01 01:10:25;;;;;;;18.30;12.80;;;;;;;7.66;100.00;99816.95;109613;1250;63896;-68
2023/10/01 01:12:54;;;;;;;18.50;13.40;;;;;;;7.66;100.00;99814.33;109609;1250;59110;-68
2023/10/01 01:15:21;;;;;;;19.00;12.80;;;;;;;7.65;100.00;99815.42;109686;1250;59089;-68
2023/10/01 01:17:50;;;;;;;20.30;12.70;;;;;;;7.63;100.00;99815.70;109627;1250;66093;-69
2023/10/01 01:20:19;;;;;;;17.50;13.80;;;;;;;7.60;100.00;99813.14;109715;1250;59074;-68
2023/10/01 01:22:49;;;;;;;16.50;13.90;;;;;;;7.59;100.00;99813.39;109586;1250;64245;-68
2023/10/01 01:25:20;;;;;;;;;;;;;;;7.57;100.00;99813.30;109659;1250;58943;-68
2023/10/01 01:27:47;;;;;;;11.60;9.40;;;;;;;7.53;100.00;99811.68;109617;1250;58966;-68
2023/10/01 01:30:19;;;;;;;24.40;14.00;;;;;;;7.49;100.00;99808.98;109361;1251;65871;-67
2023/10/01 01:32:47;;;;;;;15.90;10.70;;;;;;;7.46;100.00;99808.77;109541;1250;59857;-67
2023/10/01 01:35:14;;;;;;;12.30;8.30;;;;;;;7.44;100.00;99810.08;109542;1251;64046;-68
2023/10/01 01:37:47;;;;;;;15.10;11.70;;;;;;;7.42;100.00;99812.48;109565;1251;58949;-67
2023/10/01 01:40:31;;;;;;;15.70;11.60;;;;;;;7.39;100.00;99813.81;109550;1251;58985;-68
2023/10/01 01:43:04;;;;;;;17.10;12.20;;;;;;;7.37;100.00;99816.04;109408;1251;66099;-68
2023/10/01 01:45:38;;;;;;;15.30;12.00;;;;;;;7.35;100.00;99819.30;109592;1251;59133;-68
2023/10/01 01:48:21;;;;;;;15.70;12.30;;;;;;;7.34;100.00;99820.39;109559;1251;62924;-68
2023/10/01 01:50:49;;;;;;;13.40;11.40;;;;;;;7.33;100.00;99817.24;109397;1251;59309;-68
2023/10/01 01:53:18;;;;;;;17.40;12.10;;;;;;;7.31;100.00;99812.58;109520;1251;59033;-68
2023/10/01 01:55:45;;;;;;;12.30;10.30;;;;;;;7.30;100.00;99817.04;109552;1251;66021;-68
2023/10/01 01:58:15;;;;;;;17.00;11.90;;;;;;;7.30;100.00;99815.98;109532;1252;60247;-68
2023/10/01 02:03:28;;;;;;;13.50;10.80;;;;;;;7.28;100.00;99819.42;109544;1251;58958;-68
2023/10/01 02:05:54;;;;;;;19.60;12.60;;;;;;;7.25;100.00;99814.23;109561;1251;59161;-68
2023/10/01 02:08:23;;;;;;;15.60;10.90;;;;;;;7.24;100.00;99813.02;109561;1251;59441;-68
2023/10/01 02:10:52;;;;;;;12.30;9.50;;;;;;;7.24;100.00;99808.79;109513;1251;61527;-68
2023/10/01 02:13:21;;;;;;;9.70;8.70;;;;;;;7.22;100.00;99805.17;109518;1251;64072;-68
2023/10/01 02:15:47;;;;;;;14.00;11.30;;;;;;;7.21;100.00;99810.32;109279;1251;59090;-68
2023/10/01 02:18:17;;;;;;;12.20;10.80;;;;;;;7.20;100.00;99811.40;109539;1251;59034;-68
2023/10/01 02:20:44;;;;;;;11.30;10.00;;;;;;;7.19;100.00;99806.16;109528;1251;66028;-68
2023/10/01 02:23:17;;;;;;;11.70;10.40;;;;;;;7.18;100.00;99815.21;109583;1251;60377;-68
2023/10/01 02:25:45;;;;;;;16.30;12.80;;;;;;;7.18;100.00;99817.33;109534;1251;62844;-68
2023/10/01 02:28:15;;;;;;;16.10;12.90;;;;;;;7.18;100.00;99812.73;109522;1251;59033;-68
2023/10/01 02:30:44;;;;;;;18.00;13.20;;;;;;;7.17;100.00;99806.80;109520;1251;59004;-68
2023/10/01 02:33:18;;;;;;;16.10;11.60;;;;;;;7.15;100.00;99802.61;109493;1251;64836;-68
2023/10/01 02:35:49;;;;;;;20.00;13.90;;;;;;;7.13;100.00;99803.39;109573;1251;59079;-67
2023/10/01 02:41:03;;;;;;;19.40;12.40;;;;;;;7.11;100.00;99806.30;109575;1251;59193;-68
2023/10/01 02:43:33;;;;;;;24.30;15.40;;;;;;;7.11;100.00;99807.36;109567;1251;58816;-68
2023/10/01 02:46:04;;;;;;;;;;;;;;;7.12;100.00;99808.21;109527;1251;66074;-68
2023/10/01 02:48:30;;;;;;;22.80;12.10;;;;;;;7.12;100.00;99813.35;109589;1251;59015;-67
2023/10/01 02:51:14;;;;;;;19.30;12.40;;;;;;;7.13;100.00;99817.36;109499;1251;64036;-68
2023/10/01 02:54:05;;;;;;;16.50;13.00;;;;;;;7.17;100.00;99817.92;109534;1251;59007;-68
2023/10/01 02:56:37;;;;;;;16.80;15.00;;;;;;;7.22;100.00;99811.54;109572;1251;58957;-68
2023/10/01 02:59:10;;;;;;;15.30;13.10;;;;;;;7.27;100.00;99806.88;109530;1251;65833;-68
2023/10/01 03:01:38;;;;;;;14.60;11.40;;;;;;;7.32;100.00;99808.46;109592;1251;60725;-69
2023/10/01 03:04:10;;;;;;;15.50;12.70;;;;;;;7.36;100.00;99810.42;109548;1251;64164;-68
2023/10/01 03:06:47;;;;;;;16.20;13.30;;;;;;;7.39;100.00;99808.16;109518;1251;58962;-68
2023/10/01 03:09:29;;;;;;;19.20;13.50;;;;;;;7.43;100.00;99807.47;109564;1251;58933;-67
2023/10/01 03:12:24;;;;;;;17.30;13.20;;;;;;;7.47;100.00;99808.37;109556;1251;65854;-68
2023/10/01 03:14:44;;;;;;;18.20;12.80;;;;;;;7.52;100.00;99813.13;109567;1251;60277;-68
2023/10/01 03:17:17;;;;;;;;;;;;;;;7.55;100.00;99814.06;109553;1251;64103;-68
2023/10/01 03:19:52;;;;;;;15.20;10.40;;;;;;;7.57;100.00;99814.68;109542;1251;58944;-69
2023/10/01 03:22:27;;;;;;;15.20;11.70;;;;;;;7.61;100.00;99812.77;109598;1251;59005;-69
2023/10/01 03:24:54;;;;;;;13.80;10.60;;;;;;;7.65;100.00;99807.80;109584;1251;64462;-68
2023/10/01 03:30:00;;;;;;;10.40;9.20;;;;;;;7.69;100.00;99795.79;109619;1250;59169;-68
2023/10/01 03:32:29;;;;;;;9.90;8.90;;;;;;;7.70;100.00;99793.08;109593;1250;59062;-68
2023/10/01 03:34:56;;;;;;;18.00;13.00;;;;;;;7.73;100.00;99796.19;109593;1250;59032;-68
2023/10/01 03:37:37;;;;;;;18.10;14.90;;;;;;;7.76;100.00;99797.27;109679;1250;65605;-68
2023/10/01 03:40:21;;;;;;;17.90;16.00;;;;;;;7.79;100.00;99802.98;109505;1250;60630;-68
2023/10/01 03:42:51;;;;;;;17.80;15.00;;;;;;;7.82;100.00;99807.78;109235;1250;64969;-68
2023/10/01 03:48:00;;;;;;;15.60;14.00;;;;;;;7.88;100.00;99797.80;109583;1250;59053;-68
2023/10/01 03:50:31;;;;;;;18.40;14.30;;;;;;;7.91;100.00;99796.81;109664;1250;66271;-68
2023/10/01 03:52:59;;;;;;;18.30;15.30;;;;;;;7.93;100.00;99794.06;109684;1250;60110;-68
2023/10/01 03:55:26;;;;;;;18.80;15.40;;;;;;;7.96;100.00;99795.88;109623;1250;62514;-68
2023/10/01 03:58:06;;;;;;;18.40;15.40;;;;;;;8.00;100.00;99798.91;109627;1250;58991;-68
2023/10/01 04:00:41;;;;;;;16.10;13.50;;;;;;;8.04;100.00;99805.65;109502;1250;59074;-68
2023/10/01 04:03:13;;;;;;;18.60;15.50;;;;;;;8.08;100.00;99812.19;109633;1250;66769;-68
2023/10/01 04:05:44;;;;;;;16.70;13.80;;;;;;;8.11;100.00;99811.50;109663;1250;61211;-68
2023/10/01 04:08:14;;;;;;;;;;;;;;;8.14;100.00;99808.37;109644;1250;64140;-69
2023/10/01 04:10:41;;;;;;;18.10;14.00;;;;;;;8.16;100.00;99806.33;109339;1250;59029;-68
2023/10/01 04:13:20;;;;;;;15.20;13.60;;;;;;;8.20;100.00;99806.89;109646;1250;59036;-69
2023/10/01 04:15:54;;;;;;;14.10;12.70;;;;;;;8.23;100.00;99797.54;109630;1250;64856;-68
2023/10/01 04:18:21;;;;;;;17.20;13.00;;;;;;;8.25;100.00;99792.86;109373;1250;60136;-67
2023/10/01 04:20:49;;;;;;;15.20;13.60;;;;;;;8.26;100.00;99790.69;109647;1250;62951;-69
2023/10/01 04:23:36;;;;;;;16.90;14.90;;;;;;;8.27;100.00;99796.84;109468;1250;59038;-69
2023/10/01 04:26:07;;;;;;;18.20;14.70;;;;;;;8.29;100.00;99800.61;109659;1250;58883;-69
2023/10/01 04:28:35;;;;;;;17.00;14.60;;;;;;;8.32;100.00;99803.33;109569;1250;66093;-68
2023/10/01 04:31:09;;;;;;;17.80;15.90;;;;;;;8.35;100.00;99800.02;109638;1250;59153;-68
2023/10/01 04:33:36;;;;;;;16.40;14.70;;;;;;;8.38;100.00;99804.48;109661;1250;64113;-68
2023/10/01 04:36:10;;;;;;;18.20;14.90;;;;;;;8.41;100.00;99804.38;109626;1250;59025;-68
2023/10/01 04:38:41;;;;;;;17.80;15.80;;;;;;;8.43;100.00;99800.73;109457;1250;59073;-69
2023/10/01 04:41:22;;;;;;;18.90;16.90;;;;;;;8.46;100.00;99797.40;109649;1250;67357;-68
2023/10/01 04:44:06;;;;;;;17.10;13.90;;;;;;;8.49;100.00;99799.03;109665;1250;59096;-69
2023/10/01 04:46:40;;;;;;;15.30;13.70;;;;;;;8.53;100.00;99793.05;109700;1250;65245;-68
2023/10/01 04:49:39;;;;;;;15.50;13.90;;;;;;;8.57;100.00;99794.64;109655;1250;58965;-68
2023/10/01 04:51:55;;;;;;;14.60;13.10;;;;;;;8.60;100.00;99804.25;109734;1250;58991;-69
2023/10/01 04:54:22;;;;;;;16.70;12.90;;;;;;;8.61;100.00;99813.38;109692;1250;65741;-68
2023/10/01 04:56:49;;;;;;;14.30;12.80;;;;;;;8.64;100.00;99815.55;109583;1250;60243;-67
2023/10/01 04:59:17;;;;;;;15.10;13.40;;;;;;;8.66;100.00;99816.51;109601;1250;64027;-69
2023/10/01 05:01:43;;;;;;;16.30;12.40;;;;;;;8.69;100.00;99818.52;109441;1250;59092;-68
2023/10/01 05:04:14;;;;;;;13.30;11.90;;;;;;;8.72;100.00;99819.61;109638;1250;58918;-68
2023/10/01 05:06:43;;;;;;;17.50;13.00;;;;;;;8.76;100.00;99826.15;109664;1250;66103;-69
2023/10/01 05:09:14;;;;;;;14.40;12.10;;;;;;;8.80;100.00;99818.54;109653;1250;60252;-70
2023/10/01 05:11:42;;;;;;;13.10;11.80;;;;;;;8.83;100.00;99815.19;109558;1250;62946;-69
2023/10/01 05:14:12;;;;;;;13.10;11.40;;;;;;;8.86;100.00;99812.58;109635;1250;58933;-69
2023/10/01 05:16:38;;;;;;;13.30;11.50;;;;;;;8.90;100.00;99819.67;109635;1250;61395;-69
2023/10/01 05:19:10;;;;;;;16.50;12.70;;;;;;;8.94;100.00;99821.63;109639;1250;59220;-69
2023/10/01 05:21:41;;;;;;;14.80;11.80;;;;;;;8.98;100.00;99815.02;109659;1250;60592;-68
2023/10/01 05:24:09;;;;;;;18.90;12.60;;;;;;;9.04;100.00;99811.05;109675;1250;63761;-68
2023/10/01 05:26:36;;;;;;;14.70;13.30;;;;;;;9.09;100.00;99814.88;109617;1250;59002;-68
2023/10/01 05:29:06;;;;;;;14.30;12.90;;;;;;;9.14;100.00;99824.55;109651;1250;61473;-68
2023/10/01 05:31:34;;;;;;;;;;;;;;;9.19;100.00;99816.70;109660;1250;64599;-68
2023/10/01 05:34:01;;;;;;;16.30;14.20;;;;;;;9.24;100.00;99813.43;109658;1250;60264;-69
2023/10/01 05:36:29;;;;;;;16.90;15.10;;;;;;;9.30;100.00;99813.86;109754;1249;59812;-69
2023/10/01 05:38:55;;;;;;;15.60;14.10;;;;;;;9.36;100.00;99818.39;109776;1250;59222;-68
2023/10/01 05:41:32;;;;;;;16.40;14.80;;;;;;;9.41;100.00;99811.02;109807;1249;58875;-68
2023/10/01 05:44:01;;;;;;;18.50;16.00;;;;;;;9.47;100.00;99811.63;109764;1251;66007;-68
2023/10/01 05:46:30;;;;;;;16.60;14.50;;;;;;;9.52;100.00;99824.51;109767;1249;69016;-68
2023/10/01 05:49:00;;;;;;;17.30;15.30;;;;;;;9.56;100.00;99827.83;109721;1250;63893;-68
2023/10/01 05:51:30;;;;;;;15.70;13.10;;;;;;;9.62;100.00;99827.73;109738;1249;58914;-68
2023/10/01 05:53:58;;;;;;;17.50;13.60;;;;;;;9.66;100.00;99825.02;109575;1249;58927;-67
2023/10/01 05:56:36;;;;;;;17.40;13.00;;;;;;;9.72;100.00;99823.30;109803;1249;65767;-67
2023/10/01 05:59:03;;;;;;;15.30;12.40;;;;;;;9.79;100.00;99821.91;109790;1249;59963;-68
2023/10/01 06:01:33;;;;;;;18.00;13.10;;;;;;;9.85;100.00;99822.83;109527;1250;62414;-68
2023/10/01 06:04:00;;;;;;;16.00;12.60;;;;;;;9.93;100.00;99828.46;109778;1249;59014;-68
2023/10/01 06:06:27;;;;;;;15.10;12.60;;;;;;;10.00;100.00;99828.82;109777;1249;61174;-68
2023/10/01 06:09:00;;;;;;;15.60;11.90;;;;;;;10.07;100.00;99827.94;109742;1250;65730;-68
2023/10/01 06:11:39;;;;;;;16.70;11.70;;;;;;;10.14;100.00;99832.17;109726;1249;61347;-68
2023/10/01 06:14:07;;;;;;;14.70;13.20;;;;;;;10.21;100.00;99836.09;109746;1250;63785;-69
2023/10/01 06:16:39;;;;;;;17.30;13.90;;;;;;;10.29;100.00;99832.68;109736;1249;60786;-68
2023/10/01 06:19:11;;;;;;;13.90;12.30;;;;;;;10.37;100.00;99833.34;109736;1250;58986;-68
2023/10/01 06:21:39;;;;;;;16.00;13.30;;;;;;;10.43;100.00;99837.79;109730;1249;66093;-68
2023/10/01 06:24:10;;;;;;;16.00;13.10;;;;;;;10.49;100.00;99837.31;109799;1249;59827;-69
2023/10/01 06:26:36;;;;;;;15.90;13.00;;;;;;;10.54;100.00;99836.50;109735;1250;62935;-69
2023/10/01 06:29:05;;;;;;;13.70;12.30;;;;;;;10.58;100.00;99837.89;109732;1250;58986;-69
2023/10/01 06:31:48;;;;;;;18.30;12.90;;;;;;;10.62;100.00;99837.85;109812;1249;58978;-69
2023/10/01 06:34:15;;;;;;;16.30;11.10;;;;;;;10.70;100.00;99830.48;109678;1249;73317;-69
2023/10/01 06:36:42;;;;;;;15.10;11.70;;;;;;;10.79;100.00;99834.11;109766;1250;58998;-69
2023/10/01 06:39:19;;;;;;;13.90;11.70;;;;;;;10.88;100.00;99831.14;109738;1249;64094;-69
2023/10/01 06:41:48;;;;;;;15.30;13.00;;;;;;;10.98;100.00;99825.80;109413;1253;59011;-69
2023/10/01 06:44:15;;;;;;;18.50;12.60;;;;;;;11.09;100.00;99823.39;109036;1253;179360;-69
2023/10/01 06:46:42;;;;;;;15.60;12.00;;;;;;;11.21;100.00;99828.42;109464;1253;64793;-69
2023/10/01 06:49:11;;;;;;;15.60;11.60;;;;;;;11.31;100.00;99826.63;109432;1253;60377;-69
2023/10/01 06:51:43;;;;;;;19.40;11.70;;;;;;;11.39;100.00;99827.17;109419;1253;64221;-69
2023/10/01 06:54:14;;;;;;;16.80;11.40;;;;;;;11.48;100.00;99831.16;109348;1253;59132;-69
2023/10/01 06:56:47;;;;;;;20.10;11.60;;;;;;;11.56;100.00;99834.44;109465;1253;59113;-69
2023/10/01 06:59:16;;;;;;;15.70;11.20;;;;;;;11.63;100.00;99838.65;109448;1253;66303;-69
2023/10/01 07:01:48;;;;;;;16.70;11.50;;;;;;;11.73;100.00;99837.20;109454;1253;59039;-69
2023/10/01 07:04:19;;;;;;;15.70;11.90;;;;;;;11.81;100.00;99832.58;109195;1253;62912;-67
2023/10/01 07:06:50;;;;;;;18.00;12.20;;;;;;;11.90;100.00;99842.10;109433;1253;59163;-68
2023/10/01 07:09:34;;;;;;;18.40;13.50;;;;;;;11.97;100.00;99838.65;109506;1253;59052;-68
2023/10/01 07:12:02;;;;;;;19.40;14.00;;;;;;;12.07;100.00;99835.04;109509;1249;66482;-68
2023/10/01 07:14:45;;;;;;;18.00;12.00;;;;;;;12.13;100.00;99844.13;109720;1249;59041;-67
2023/10/01 07:17:14;;;;;;;25.80;14.70;;;;;;;12.14;100.00;99848.16;109491;1249;64234;-68
2023/10/01 07:19:42;;;;;;;21.30;13.40;;;;;;;12.18;100.00;99849.73;109531;1249;58935;-67
2023/10/01 07:22:09;;;;;;;15.60;11.60;;;;;;;12.25;100.00;99853.92;109574;1250;59042;-68
2023/10/01 07:24:36;;;;;;;16.80;10.90;;;;;;;12.32;100.00;99856.02;109570;1249;66076;-68
2023/10/01 07:27:03;;;;;;;14.20;10.20;;;;;;;12.38;100.00;99850.83;109741;1249;59172;-68
2023/10/01 07:29:33;;;;;;;14.80;10.30;;;;;;;12.47;100.00;99849.20;109703;1250;63750;-68
2023/10/01 07:32:07;;;;;;;;;;;;;;;12.57;100.00;99860.17;109738;1249;58915;-69
2023/10/01 07:34:35;;;;;;;14.60;10.70;;;;;;;12.65;100.00;99863.44;109745;1250;59039;-68
2023/10/01 07:37:04;;;;;;;15.70;10.50;;;;;;;12.74;100.00;99865.90;109755;1250;66093;-68
2023/10/01 07:39:35;;;;;;;16.60;10.90;;;;;;;12.83;100.00;99865.02;109768;1250;58952;-70
2023/10/01 07:42:04;;;;;;;12.50;10.50;;;;;;;12.95;100.00;99855.52;109568;1250;64111;-69
2023/10/01 07:44:36;;;;;;;15.00;10.60;;;;;;;13.07;100.00;99851.88;109770;1249;58933;-69
2023/10/01 07:47:03;;;;;;;13.20;9.10;;;;;;;13.18;100.00;99847.23;109744;1249;59016;-69
2023/10/01 07:49:48;;;;;;;11.10;8.90;;;;;;;13.29;100.00;99846.73;109711;1249;64523;-67
2023/10/01 07:52:19;;;;;;;13.10;8.80;;;;;;;13.39;100.00;99847.88;109709;1249;60372;-67
2023/10/01 07:54:49;;;;;;;12.30;7.90;;;;;;;13.49;100.00;99847.23;109746;1250;64052;-67
2023/10/01 07:57:28;;;;;;;15.70;8.20;;;;;;;13.56;100.00;99843.73;109595;1249;59379;-68
2023/10/01 07:59:55;;;;;;;10.80;7.70;;;;;;;13.64;100.00;99841.44;109722;1251;59001;-68
2023/10/01 08:02:22;;;;;;;12.10;7.30;;;;;;;13.69;100.00;99841.83;109650;1249;66059;-68
2023/10/01 08:07:18;;;;;;;11.30;7.20;;;;;;;13.82;100.00;99846.52;109762;1250;62596;-68
2023/10/01 08:09:51;;;;;;;13.40;7.00;;;;;;;13.90;100.00;99836.34;109811;1249;58935;-68
2023/10/01 08:12:20;;;;;;;9.90;6.30;;;;;;;13.99;100.00;99834.45;109737;1249;59260;-68
2023/10/01 08:15:15;;;;;;;10.40;7.10;;;;;;;14.10;100.00;99832.66;109706;1250;64729;-68
2023/10/01 08:17:35;;;;;;;13.10;6.40;;;;;;;14.28;100.00;99831.28;109766;1249;68913;-68
2023/10/01 08:25:42;;;;;;;10.50;6.40;;;;;;;14.80;100.00;99834.98;109748;1250;58987;-69
2023/10/01 08:30:43;;;;;;;8.60;6.00;;;;;;;15.03;100.00;99833.67;109749;1250;58946;-68
2023/10/01 08:33:19;;;;;;;10.90;5.20;;;;;;;15.16;100.00;99830.64;109716;1250;64046;-68
2023/10/01 08:36:05;;;;;;;10.90;5.20;;;;;;;15.23;100.00;99832.44;109713;1249;58929;-69
2023/10/01 08:38:36;;;;;;;10.50;5.60;;;;;;;15.27;100.00;99839.27;109768;1251;58922;-69
2023/10/01 08:41:05;;;;;;;6.40;4.70;;;;;;;15.25;100.00;99840.66;109766;1249;65842;-68
2023/10/01 08:43:36;;;;;;;9.40;5.00;;;;;;;15.25;100.00;99836.79;109774;1250;58938;-69
2023/10/01 08:46:16;;;;;;;11.60;5.40;;;;;;;15.31;100.00;99838.95;109723;1250;62523;-69
2023/10/01 08:48:43;;;;;;;12.20;5.50;;;;;;;15.45;100.00;99845.30;109717;1249;59003;-68
2023/10/01 08:51:12;;;;;;;8.10;4.60;;;;;;;15.65;100.00;99845.44;109744;1250;59029;-68
2023/10/01 08:53:42;;;;;;;11.30;5.20;;;;;;;15.93;100.00;99846.58;109735;1249;65723;-68
2023/10/01 08:56:32;;;;;;;11.80;4.70;;;;;;;16.15;100.00;99845.85;109744;1250;59822;-68
2023/10/01 08:58:59;;;;;;;10.90;4.40;;;;;;;16.21;100.00;99847.14;109693;1249;64162;-69
2023/10/01 09:01:29;;;;;;;9.60;4.60;;;;;;;16.18;100.00;99854.20;109680;1250;58915;-68
2023/10/01 09:03:57;;;;;;;9.40;4.50;;;;;;;16.20;100.00;99855.81;109756;1250;58980;-68
2023/10/01 09:06:59;;;;;;;12.50;4.70;;;;;;;16.26;100.00;99853.05;109736;1250;67196;-69
2023/10/01 09:09:26;;;;;;;7.60;3.60;;;;;;;16.35;100.00;99850.77;109608;1250;59846;-69
2023/10/01 09:11:58;;;;;;;8.50;4.00;;;;;;;16.34;100.00;99851.05;109773;1250;64106;-69
2023/10/01 09:14:39;;;;;;;9.90;4.70;;;;;;;16.31;100.00;99850.54;109522;1250;59078;-69
2023/10/01 09:17:24;;;;;;;10.50;5.50;;;;;;;16.23;100.00;99846.11;109537;1257;59064;-69
2023/10/01 09:19:51;;;;;;;9.60;4.20;;;;;;;16.23;100.00;99843.45;109728;1250;65187;-68
2023/10/01 09:22:40;;;;;;;9.40;4.10;;;;;;;16.42;100.00;99843.05;109594;1250;60105;-68
2023/10/01 09:25:20;;;;;;;9.70;4.10;;;;;;;16.67;100.00;99847.70;109484;1249;62505;-69
2023/10/01 09:28:04;;;;;;;11.90;4.10;;;;;;;16.86;100.00;99847.34;109683;1249;59250;-69
2023/10/01 09:30:47;;;;;;;9.50;3.80;;;;;;;17.00;100.00;99848.77;109754;1249;61177;-70
2023/10/01 09:33:23;;;;;;;8.50;3.80;;;;;;;17.14;100.00;99849.81;109715;1251;67158;-68
2023/10/01 09:35:50;;;;;;;9.20;4.90;;;;;;;17.28;100.00;99844.87;109777;1250;59888;-68
2023/10/01 09:38:18;;;;;;;8.80;3.80;;;;;;;17.41;100.00;99839.30;109761;1250;64001;-68
2023/10/01 09:40:51;;;;;;;7.70;3.50;;;;;;;17.54;100.00;99838.41;109751;1250;58935;-68
2023/10/01 09:43:18;;;;;;;8.70;3.30;;;;;;;17.59;100.00;99837.66;109764;1250;58860;-68
2023/10/01 09:45:46;;;;;;;9.00;3.70;;;;;;;17.61;100.00;99835.04;109678;1250;64512;-68
2023/10/01 09:48:29;;;;;;;6.80;3.30;;;;;;;17.66;100.00;99832.42;109714;1250;60027;-68
2023/10/01 09:51:14;;;;;;;9.00;3.50;;;;;;;17.72;100.00;99832.20;109710;1250;62628;-68
2023/10/01 09:53:52;;;;;;;8.50;3.30;;;;;;;17.80;100.00;99829.48;109715;1249;59033;-69
2023/10/01 09:56:26;;;;;;;7.00;3.10;;;;;;;17.91;100.00;99825.15;109747;1250;58967;-68
2023/10/01 09:59:01;;;;;;;9.90;3.30;;;;;;;18.02;100.00;99822.38;109758;1250;65885;-68
2023/10/01 10:01:30;;;;;;;10.20;4.00;;;;;;;18.10;100.00;99821.19;109757;1251;59286;-69
2023/10/01 10:04:01;;;;;;;5.80;3.30;;;;;;;18.23;100.00;99816.32;109723;1249;64052;-69
2023/10/01 10:06:29;;;;;;;9.00;3.80;;;;;;;18.26;100.00;99813.66;109719;1249;58977;-69
2023/10/01 10:09:03;;;;;;;10.60;3.20;;;;;;;18.21;100.00;99815.38;109734;1249;58934;-68
2023/10/01 10:11:40;;;;;;;7.40;3.50;;;;;;;18.18;100.00;99818.36;109750;1251;65940;-69
2023/10/01 10:14:25;;;;;;;9.10;3.10;;;;;;;18.27;100.00;99823.34;109402;1251;60274;-68
2023/10/01 10:17:07;;;;;;;10.00;3.10;;;;;;;18.36;100.00;99821.52;109745;1251;63808;-68
2023/10/01 10:20:15;;;;;;;8.50;3.20;;;;;;;18.35;100.00;99819.24;109699;1250;58947;-68
2023/10/01 10:23:13;;;;;;;8.70;3.50;;;;;;;18.37;100.00;99819.78;109767;1250;58951;-69
2023/10/01 10:25:40;;;;;;;6.90;3.00;;;;;;;18.40;100.00;99815.41;109735;1250;67165;-67
2023/10/01 10:28:09;;;;;;;7.30;2.70;;;;;;;18.43;100.00;99810.46;109737;1250;60236;-67
2023/10/01 10:30:41;;;;;;;6.50;3.60;;;;;;;18.38;100.00;99809.02;109699;1251;63754;-67
2023/10/01 10:33:17;;;;;;;9.40;2.80;;;;;;;18.43;100.00;99812.79;109726;1251;59045;-67
2023/10/01 10:35:49;;;;;;;6.30;2.60;;;;;;;18.38;100.00;99811.73;109761;1250;58950;-67
2023/10/01 10:38:51;;;;;;;8.30;3.00;;;;;;;18.40;100.00;99811.39;109735;1249;66243;-67
2023/10/01 10:41:19;;;;;;;7.70;3.00;;;;;;;18.43;100.00;99810.79;108992;1259;59039;-67
2023/10/01 10:44:08;;;;;;;7.20;2.90;;;;;;;18.36;100.00;99812.29;108991;1259;64087;-67
2023/10/01 10:47:03;;;;;;;9.00;3.00;;;;;;;18.36;100.00;99814.45;108968;1259;59007;-67
2023/10/01 10:49:48;;;;;;;5.70;2.80;;;;;;;18.28;100.00;99810.84;108953;1259;58834;-67
2023/10/01 10:52:32;;;;;;;6.10;3.00;;;;;;;18.23;100.00;99812.70;108987;1259;64893;-67
2023/10/01 10:55:17;;;;;;;7.40;3.90;;;;;;;18.20;100.00;99818.31;108970;1259;60387;-68
2023/10/01 10:57:48;;;;;;;7.70;2.80;;;;;;;18.31;100.00;99815.28;108955;1258;63369;-67
2023/10/01 11:00:27;;;;;;;7.50;2.90;;;;;;;18.37;100.00;99810.92;108997;1259;59142;-67
2023/10/01 11:02:57;;;;;;;10.40;3.40;;;;;;;18.44;100.00;99809.13;108762;1258;59103;-68
2023/10/01 11:05:28;;;;;;;;;;;;;;;18.51;100.00;99803.64;108882;1258;66239;-67
2023/10/01 11:08:02;;;;;;;7.00;3.50;;;;;;;18.53;100.00;99803.30;109021;1258;59008;-67
2023/10/01 11:10:47;;;;;;;7.60;3.20;;;;;;;18.65;100.00;99801.13;108987;1259;65298;-67
2023/10/01 11:13:13;;;;;;;10.40;3.40;;;;;;;18.77;100.00;99799.57;109010;1259;59071;-67
2023/10/01 11:15:40;;;;;;;7.40;3.10;;;;;;;18.83;100.00;99796.30;109020;1260;58974;-67
2023/10/01 11:18:09;;;;;;;9.30;2.90;;;;;;;18.86;100.00;99796.04;109370;1249;64842;-67
2023/10/01 11:20:44;;;;;;;7.30;3.10;;;;;;;18.88;100.00;99789.77;109729;1251;59008;-67
2023/10/01 11:23:16;;;;;;;6.20;2.90;;;;;;;19.01;100.00;99784.88;109678;1250;63744;-67
2023/10/01 11:25:47;;;;;;;8.40;3.00;;;;;;;19.10;100.00;99787.84;109744;1250;58912;-67
2023/10/01 11:28:14;;;;;;;5.60;2.80;;;;;;;19.17;100.00;99783.98;109772;1250;58983;-67
2023/10/01 11:30:43;;;;;;;6.60;3.10;;;;;;;19.24;100.00;99781.11;109749;1251;66109;-66
2023/10/01 11:35:40;;;;;;;6.40;2.20;;;;;;;19.31;100.00;99772.59;109707;1251;62502;-67
2023/10/01 11:38:21;;;;;;;4.90;2.50;;;;;;;19.32;100.00;99771.41;109703;1249;59191;-67
2023/10/01 11:41:07;;;;;;;5.40;2.60;;;;;;;19.38;100.00;99766.94;109706;1251;58995;-67
2023/10/01 11:43:42;;;;;;;5.50;2.60;;;;;;;19.45;100.00;99759.42;109718;1250;67184;-67
2023/10/01 11:46:22;;;;;;;7.50;2.60;;;;;;;19.35;100.00;99755.83;109593;1251;60247;-66
2023/10/01 11:49:04;;;;;;;6.50;2.40;;;;;;;19.27;100.00;99755.31;109735;1251;62508;-67
2023/10/01 11:51:45;;;;;;;10.20;3.00;;;;;;;19.29;100.00;99751.36;109718;1251;59021;-70
2023/10/01 11:54:13;;;;;;;4.90;2.00;;;;;;;19.24;100.00;99747.48;109475;1251;58988;-74
2023/10/01 11:57:04;;;;;;;7.10;2.40;;;;;;;19.21;100.00;99741.45;109493;1255;65885;-78
2023/10/01 11:59:42;;;;;;;4.10;2.20;;;;;;;19.35;100.00;99733.84;109593;1251;59090;-77